In Rescue
 
Open Full Screen Window  High Contrast Mode
Wind Gusting 00 knots
05
August 09, 2020 5:42 PM CDT
Weather Information
Wind Direction
  250 °
Wind Speed
  05 kt (6 mph)
Wind Gust
  00 kt (0 mph)
Altimeter
29.83 in
Visibility
10 SM
Temperature
23° C
73° F
Dewpoint
19° C
66° F
Humidity
78%
1hr Rain Fall
00.00 in.
24hr Rain Fall
00.53 in.
Sky Condition
Overcast @ 2,300 ft
MVFR

METAR KROS 092242Z AUTO 25005KT 10SM OVC023 23/19 A2983 RMK AO2 T02310194

FAA Disclaimer: The data displayed is for advisory purposes only and is not to be used for flight planning or operations.